Time;durP1;ratioP1;P1;durP2;ratioP2;P2;SDS_P1;SDS_P2;PMS_P1;PMS_P2;Temp;Humidity;BMP_temperature;BMP_pressure;BME280_temperature;BME280_humidity;BME280_pressure;Samples;Min_cycle;Max_cycle;Signal;HPM_P1;HPM_P2
2022/05/12 00:01:03;;;;;;;13.55;3.53;;;;;;;;;;5106919;28;20059;-68
2022/05/12 00:03:28;;;;;;;16.75;3.45;;;;;;;;;;5103510;28;20036;-68
2022/05/12 00:06:00;;;;;;;10.50;3.65;;;;;;;;;;5108710;28;20530;-69
2022/05/12 00:08:32;;;;;;;10.18;3.22;;;;;;;;;;5099674;28;20383;-68
2022/05/12 00:10:57;;;;;;;11.88;3.92;;;;;;;;;;5107816;28;20464;-68
2022/05/12 00:13:29;;;;;;;19.67;3.70;;;;;;;;;;5108436;28;20133;-68
2022/05/12 00:16:01;;;;;;;17.45;4.30;;;;;;;;;;5108573;28;20365;-69
2022/05/12 00:18:27;;;;;;;22.67;3.63;;;;;;;;;;5108304;28;20031;-68
2022/05/12 00:20:59;;;;;;;10.10;3.50;;;;;;;;;;5108785;28;20790;-68
2022/05/12 00:23:31;;;;;;;12.77;4.03;;;;;;;;;;5110373;28;20039;-68
2022/05/12 00:25:56;;;;;;;13.70;4.30;;;;;;;;;;5108729;28;20043;-68
2022/05/12 00:28:30;;;;;;;19.52;4.43;;;;;;;;;;5113219;28;20012;-68
2022/05/12 00:31:02;;;;;;;15.00;3.58;;;;;;;;;;5109737;28;20060;-68
2022/05/12 00:33:27;;;;;;;15.23;3.75;;;;;;;;;;5108367;28;20070;-68
2022/05/12 00:36:00;;;;;;;17.85;3.60;;;;;;;;;;5108020;28;20471;-68
2022/05/12 00:38:32;;;;;;;7.85;3.28;;;;;;;;;;5112512;28;20032;-68
2022/05/12 00:40:57;;;;;;;12.57;3.45;;;;;;;;;;5106599;28;20480;-68
2022/05/12 00:43:38;;;;;;;14.15;3.40;;;;;;;;;;5106444;28;20032;-68
2022/05/12 00:46:12;;;;;;;15.77;3.60;;;;;;;;;;5107330;28;20020;-68
2022/05/12 00:48:45;;;;;;;10.40;2.90;;;;;;;;;;5101686;28;20111;-68
2022/05/12 00:51:19;;;;;;;9.75;2.78;;;;;;;;;;5106004;28;20035;-68
2022/05/12 00:53:53;;;;;;;10.90;3.33;;;;;;;;;;5109534;28;20048;-68
2022/05/12 00:56:25;;;;;;;14.18;3.78;;;;;;;;;;5097773;28;20067;-68
2022/05/12 00:58:52;;;;;;;13.18;3.88;;;;;;;;;;5100675;28;20043;-68
2022/05/12 01:01:24;;;;;;;12.20;3.70;;;;;;;;;;5099566;28;20024;-68
2022/05/12 01:03:57;;;;;;;20.35;3.40;;;;;;;;;;5104637;28;20551;-68
2022/05/12 01:06:23;;;;;;;10.80;3.33;;;;;;;;;;5104275;28;20024;-68
2022/05/12 01:08:55;;;;;;;15.88;3.72;;;;;;;;;;5107617;28;20357;-68
2022/05/12 01:11:27;;;;;;;12.43;3.58;;;;;;;;;;5111085;28;20027;-68
2022/05/12 01:14:02;;;;;;;21.42;3.60;;;;;;;;;;5116679;28;20049;-68
2022/05/12 01:16:43;;;;;;;14.68;3.42;;;;;;;;;;5113021;28;20050;-68
2022/05/12 01:19:16;;;;;;;12.05;3.22;;;;;;;;;;5106925;28;20067;-68
2022/05/12 01:21:49;;;;;;;12.53;3.40;;;;;;;;;;5107666;28;20100;-68
2022/05/12 01:24:15;;;;;;;12.38;2.58;;;;;;;;;;5109952;28;20048;-68
2022/05/12 01:26:47;;;;;;;15.93;3.60;;;;;;;;;;5097950;28;20030;-68
2022/05/12 01:29:19;;;;;;;15.65;3.10;;;;;;;;;;5115709;28;20375;-68
2022/05/12 01:31:44;;;;;;;14.13;2.85;;;;;;;;;;5105872;28;20536;-68
2022/05/12 01:34:17;;;;;;;7.00;2.50;;;;;;;;;;5109139;28;20137;-68
2022/05/12 01:36:49;;;;;;;19.52;3.25;;;;;;;;;;5106695;28;20027;-68
2022/05/12 01:39:14;;;;;;;15.55;2.92;;;;;;;;;;5116278;28;20035;-68
2022/05/12 01:41:48;;;;;;;9.13;2.17;;;;;;;;;;5108552;28;20451;-68
2022/05/12 01:44:20;;;;;;;5.03;2.33;;;;;;;;;;5096200;28;20486;-68
2022/05/12 01:46:45;;;;;;;12.70;2.65;;;;;;;;;;5110104;28;20070;-68
2022/05/12 01:49:17;;;;;;;13.00;2.38;;;;;;;;;;5113341;28;20024;-68
2022/05/12 01:51:56;;;;;;;12.23;2.90;;;;;;;;;;5111222;28;20024;-68
2022/05/12 01:54:29;;;;;;;15.63;2.92;;;;;;;;;;5104809;28;20138;-68
2022/05/12 01:57:01;;;;;;;9.93;2.83;;;;;;;;;;5114007;28;20032;-68
2022/05/12 01:59:26;;;;;;;14.35;2.58;;;;;;;;;;5115573;28;20032;-68
2022/05/12 02:01:58;;;;;;;9.48;2.95;;;;;;;;;;5112461;28;20015;-68
2022/05/12 02:04:30;;;;;;;14.50;2.70;;;;;;;;;;5107005;28;20049;-68
2022/05/12 02:06:55;;;;;;;8.73;2.47;;;;;;;;;;5103223;28;20843;-68
2022/05/12 02:09:27;;;;;;;8.85;3.20;;;;;;;;;;5112165;28;20016;-68
2022/05/12 02:11:59;;;;;;;11.27;2.92;;;;;;;;;;5104329;28;20084;-68
2022/05/12 02:14:24;;;;;;;15.18;3.67;;;;;;;;;;5114318;28;20042;-68
2022/05/12 02:16:56;;;;;;;16.88;4.07;;;;;;;;;;5106807;28;20008;-68
2022/05/12 02:19:29;;;;;;;19.38;4.07;;;;;;;;;;5113844;28;20391;-68
2022/05/12 02:21:54;;;;;;;9.98;3.50;;;;;;;;;;5107836;28;20042;-68
2022/05/12 02:24:27;;;;;;;17.30;3.67;;;;;;;;;;5101891;28;20515;-68
2022/05/12 02:26:59;;;;;;;21.27;3.47;;;;;;;;;;5109374;28;20053;-68
2022/05/12 02:29:24;;;;;;;16.30;3.53;;;;;;;;;;5112804;28;20031;-68
2022/05/12 02:31:56;;;;;;;17.52;3.67;;;;;;;;;;5110748;28;20022;-68
2022/05/12 02:34:28;;;;;;;18.67;3.63;;;;;;;;;;5114034;28;20394;-68
2022/05/12 02:37:00;;;;;;;20.40;3.55;;;;;;;;;;5113161;28;20102;-68
2022/05/12 02:39:35;;;;;;;13.35;4.10;;;;;;;;;;5112085;28;20042;-68
2022/05/12 02:42:08;;;;;;;14.80;3.63;;;;;;;;;;5108672;28;20031;-68
2022/05/12 02:44:33;;;;;;;10.13;3.30;;;;;;;;;;5112087;28;20042;-68
2022/05/12 02:47:05;;;;;;;16.23;3.05;;;;;;;;;;5102493;28;20016;-68
2022/05/12 02:49:37;;;;;;;17.67;3.30;;;;;;;;;;5106820;28;20031;-68
2022/05/12 02:52:03;;;;;;;10.18;2.45;;;;;;;;;;5103873;28;20394;-68
2022/05/12 02:54:35;;;;;;;14.05;3.40;;;;;;;;;;5108444;28;20058;-68
2022/05/12 02:57:07;;;;;;;21.88;3.08;;;;;;;;;;5102985;28;20032;-68
2022/05/12 02:59:32;;;;;;;16.08;2.42;;;;;;;;;;5113710;28;20356;-68
2022/05/12 03:02:04;;;;;;;10.75;2.63;;;;;;;;;;5107273;28;20026;-68
2022/05/12 03:04:36;;;;;;;13.05;2.70;;;;;;;;;;5103555;28;20042;-68
2022/05/12 03:07:01;;;;;;;7.55;2.45;;;;;;;;;;5102434;28;20028;-68
2022/05/12 03:09:33;;;;;;;8.80;2.80;;;;;;;;;;5107320;28;20164;-68
2022/05/12 03:12:05;;;;;;;10.95;2.67;;;;;;;;;;5109859;28;20054;-68
2022/05/12 03:14:30;;;;;;;17.98;2.92;;;;;;;;;;5112977;28;20746;-68
2022/05/12 03:17:02;;;;;;;10.70;3.22;;;;;;;;;;5111555;28;20023;-68
2022/05/12 03:19:34;;;;;;;17.00;2.63;;;;;;;;;;5104913;28;20106;-68
2022/05/12 03:21:59;;;;;;;18.67;3.50;;;;;;;;;;5105610;28;20372;-68
2022/05/12 03:24:31;;;;;;;12.60;2.38;;;;;;;;;;5111597;28;20063;-68
2022/05/12 03:27:03;;;;;;;8.65;2.22;;;;;;;;;;5104363;28;20024;-68
2022/05/12 03:29:28;;;;;;;10.55;2.85;;;;;;;;;;5111660;28;20104;-68
2022/05/12 03:32:00;;;;;;;12.77;2.80;;;;;;;;;;5102759;28;20016;-68
2022/05/12 03:34:32;;;;;;;14.25;2.88;;;;;;;;;;5113152;28;20023;-68
2022/05/12 03:36:57;;;;;;;11.15;2.47;;;;;;;;;;5104029;28;20038;-68
2022/05/12 03:39:29;;;;;;;11.00;2.38;;;;;;;;;;5113622;28;20012;-68
2022/05/12 03:42:02;;;;;;;14.38;3.05;;;;;;;;;;5105789;28;20106;-68
2022/05/12 03:47:33;;;;;;;8.82;2.88;;;;;;;;;;5107123;28;20033;-68
2022/05/12 03:50:01;;;;;;;6.30;2.53;;;;;;;;;;5112968;28;20031;-68
2022/05/12 03:52:40;;;;;;;9.30;2.83;;;;;;;;;;5097429;28;20520;-68
2022/05/12 03:55:06;;;;;;;13.85;3.22;;;;;;;;;;5102331;28;20038;-68
2022/05/12 03:57:32;;;;;;;10.77;2.65;;;;;;;;;;5110342;28;20019;-68
2022/05/12 04:00:12;;;;;;;13.40;3.15;;;;;;;;;;5113090;28;20015;-68
2022/05/12 04:02:37;;;;;;;15.40;2.55;;;;;;;;;;5112616;28;20443;-68
2022/05/12 04:05:04;;;;;;;22.63;3.78;;;;;;;;;;5112941;28;20110;-68
2022/05/12 04:07:47;;;;;;;13.63;2.67;;;;;;;;;;5099124;28;20060;-68
2022/05/12 04:10:13;;;;;;;11.35;2.88;;;;;;;;;;5112882;28;20031;-68
2022/05/12 04:12:45;;;;;;;15.07;3.35;;;;;;;;;;5101777;28;20493;-68
2022/05/12 04:15:17;;;;;;;15.27;3.15;;;;;;;;;;5107273;28;20035;-68
2022/05/12 04:17:43;;;;;;;18.10;2.88;;;;;;;;;;5102570;28;20032;-68
2022/05/12 04:20:15;;;;;;;14.43;2.95;;;;;;;;;;5111169;28;20076;-68
2022/05/12 04:22:48;;;;;;;14.07;3.03;;;;;;;;;;5105350;28;20035;-68
2022/05/12 04:25:13;;;;;;;11.30;2.47;;;;;;;;;;5111485;28;20062;-68
2022/05/12 04:27:45;;;;;;;18.83;2.88;;;;;;;;;;5106465;28;20020;-68
2022/05/12 04:30:19;;;;;;;10.77;2.85;;;;;;;;;;5093238;28;20487;-68
2022/05/12 04:32:44;;;;;;;19.67;3.40;;;;;;;;;;5106643;28;20031;-68
2022/05/12 04:35:16;;;;;;;23.15;3.33;;;;;;;;;;5112446;28;20015;-68
2022/05/12 04:37:53;;;;;;;15.95;3.03;;;;;;;;;;5110006;28;20108;-68
2022/05/12 04:40:26;;;;;;;12.63;3.08;;;;;;;;;;5102992;28;20036;-68
2022/05/12 04:42:53;;;;;;;18.92;3.53;;;;;;;;;;5108048;28;20028;-68
2022/05/12 04:45:25;;;;;;;10.93;2.97;;;;;;;;;;5105593;28;20040;-68
2022/05/12 04:47:57;;;;;;;15.00;2.83;;;;;;;;;;5111714;28;20395;-68
2022/05/12 04:50:34;;;;;;;18.48;3.10;;;;;;;;;;5108074;28;20028;-68
2022/05/12 04:53:06;;;;;;;15.70;2.88;;;;;;;;;;5109402;28;20386;-68
2022/05/12 04:55:33;;;;;;;16.88;3.08;;;;;;;;;;5108488;28;20038;-68
2022/05/12 04:58:05;;;;;;;12.98;3.10;;;;;;;;;;5108080;28;20647;-68
2022/05/12 05:00:40;;;;;;;16.33;2.95;;;;;;;;;;5109365;28;20049;-68
2022/05/12 05:03:12;;;;;;;10.32;2.88;;;;;;;;;;5110704;28;20451;-68
2022/05/12 05:05:44;;;;;;;16.05;3.30;;;;;;;;;;5107404;28;20031;-68
2022/05/12 05:08:21;;;;;;;16.30;2.75;;;;;;;;;;5106419;28;20440;-68
2022/05/12 05:10:53;;;;;;;19.00;3.17;;;;;;;;;;5112472;28;20453;-67
2022/05/12 05:13:19;;;;;;;11.60;2.35;;;;;;;;;;5109743;28;20063;-68
2022/05/12 05:15:51;;;;;;;9.30;2.00;;;;;;;;;;5113714;28;20039;-68
2022/05/12 05:18:23;;;;;;;10.85;2.15;;;;;;;;;;5114246;28;20024;-68
2022/05/12 05:20:49;;;;;;;11.88;2.63;;;;;;;;;;5114271;28;20039;-68
2022/05/12 05:23:21;;;;;;;46.10;3.88;;;;;;;;;;5116106;28;20011;-68
2022/05/12 05:25:53;;;;;;;206.07;12.25;;;;;;;;;;5112672;28;20100;-68
2022/05/12 05:28:19;;;;;;;250.98;13.43;;;;;;;;;;5115709;28;20067;-68
2022/05/12 05:30:51;;;;;;;10.25;1.60;;;;;;;;;;5102275;28;20062;-68
2022/05/12 05:33:23;;;;;;;183.98;10.75;;;;;;;;;;5107842;28;20115;-68
2022/05/12 05:35:48;;;;;;;707.53;36.72;;;;;;;;;;5114071;28;20491;-68
2022/05/12 05:38:20;;;;;;;317.58;19.10;;;;;;;;;;5116038;28;20047;-68
2022/05/12 05:40:52;;;;;;;506.80;24.85;;;;;;;;;;5106095;28;20059;-69
2022/05/12 05:43:18;;;;;;;692.20;38.90;;;;;;;;;;5111111;28;20027;-68
2022/05/12 05:45:50;;;;;;;533.78;31.02;;;;;;;;;;5113328;28;20008;-68
2022/05/12 05:48:22;;;;;;;845.35;45.15;;;;;;;;;;5111122;28;20493;-68
2022/05/12 05:53:45;;;;;;;154.15;11.88;;;;;;;;;;5095478;28;20107;-68
2022/05/12 05:56:14;;;;;;;58.30;4.18;;;;;;;;;;5110675;28;20484;-68
2022/05/12 05:58:54;;;;;;;8.05;1.80;;;;;;;;;;5089746;28;20406;-69
2022/05/12 06:01:20;;;;;;;5.00;1.50;;;;;;;;;;5111639;28;20043;-68
2022/05/12 06:03:46;;;;;;;6.63;1.60;;;;;;;;;;5113902;28;20498;-69
2022/05/12 06:06:24;;;;;;;6.22;1.80;;;;;;;;;;5114365;28;20031;-69
2022/05/12 06:08:49;;;;;;;3.70;1.35;;;;;;;;;;5110654;28;20039;-69
2022/05/12 06:11:15;;;;;;;2.97;1.17;;;;;;;;;;5108268;28;20024;-68
2022/05/12 06:13:53;;;;;;;4.60;1.50;;;;;;;;;;5109545;28;20415;-68
2022/05/12 06:16:19;;;;;;;4.90;1.60;;;;;;;;;;5100549;28;20032;-67
2022/05/12 06:18:46;;;;;;;3.50;1.25;;;;;;;;;;5099083;28;20034;-67
2022/05/12 06:21:25;;;;;;;8.70;1.67;;;;;;;;;;5105924;28;20110;-67
2022/05/12 06:23:50;;;;;;;4.28;1.33;;;;;;;;;;5109054;28;20047;-69
2022/05/12 06:26:15;;;;;;;4.00;1.38;;;;;;;;;;5109974;28;20051;-67
2022/05/12 06:28:55;;;;;;;5.22;1.67;;;;;;;;;;5114904;28;20022;-67
2022/05/12 06:31:30;;;;;;;3.90;1.40;;;;;;;;;;5111860;28;20035;-67
2022/05/12 06:34:08;;;;;;;7.32;1.95;;;;;;;;;;5107438;28;20027;-67
2022/05/12 06:36:33;;;;;;;3.65;1.52;;;;;;;;;;5113333;28;20032;-67
2022/05/12 06:38:59;;;;;;;8.73;1.77;;;;;;;;;;5114617;28;20015;-67
2022/05/12 06:41:37;;;;;;;6.15;1.92;;;;;;;;;;5113270;28;20051;-67
2022/05/12 06:44:04;;;;;;;7.38;1.70;;;;;;;;;;5114404;28;20040;-67
2022/05/12 06:46:30;;;;;;;7.15;1.70;;;;;;;;;;5105028;28;20517;-67
2022/05/12 06:49:08;;;;;;;5.10;1.45;;;;;;;;;;5103419;28;20024;-68
2022/05/12 06:51:34;;;;;;;5.90;1.55;;;;;;;;;;5103803;28;20522;-67
2022/05/12 06:53:59;;;;;;;5.07;1.60;;;;;;;;;;5111275;28;20103;-67
2022/05/12 06:56:38;;;;;;;6.38;1.63;;;;;;;;;;5112157;28;20019;-67
2022/05/12 06:59:03;;;;;;;6.22;1.40;;;;;;;;;;5114496;28;20119;-67
2022/05/12 07:01:29;;;;;;;8.15;1.88;;;;;;;;;;5091203;28;20098;-67
2022/05/12 07:04:07;;;;;;;7.97;1.90;;;;;;;;;;5108324;28;20501;-67
2022/05/12 07:06:32;;;;;;;6.28;1.48;;;;;;;;;;5114257;28;20039;-67
2022/05/12 07:08:58;;;;;;;5.85;1.65;;;;;;;;;;5105632;28;20064;-67
2022/05/12 07:11:36;;;;;;;7.93;1.65;;;;;;;;;;5114310;28;20034;-68
2022/05/12 07:14:02;;;;;;;5.72;1.90;;;;;;;;;;5113468;28;20495;-67
2022/05/12 07:16:27;;;;;;;8.45;1.77;;;;;;;;;;5113695;28;20091;-67
2022/05/12 07:19:06;;;;;;;6.72;1.73;;;;;;;;;;5099253;28;20027;-68
2022/05/12 07:27:12;;;;;;;8.30;2.25;;;;;;;;;;5113352;28;20504;-67
2022/05/12 07:29:51;;;;;;;9.35;2.28;;;;;;;;;;5109155;28;20016;-68
2022/05/12 07:32:17;;;;;;;5.75;1.83;;;;;;;;;;5106612;28;20107;-68
2022/05/12 07:34:42;;;;;;;5.30;1.90;;;;;;;;;;5113223;28;20134;-68
2022/05/12 07:37:21;;;;;;;7.68;1.40;;;;;;;;;;5112816;28;21664;-68
2022/05/12 07:39:46;;;;;;;5.18;1.80;;;;;;;;;;5100842;28;20079;-68
2022/05/12 07:42:12;;;;;;;9.02;1.60;;;;;;;;;;5100834;28;20482;-68
2022/05/12 07:44:50;;;;;;;5.75;1.63;;;;;;;;;;5113134;28;20024;-68
2022/05/12 07:47:15;;;;;;;5.18;1.50;;;;;;;;;;5103156;28;20123;-68
2022/05/12 07:49:41;;;;;;;7.22;2.10;;;;;;;;;;5112952;28;20090;-69
2022/05/12 07:52:20;;;;;;;5.95;1.77;;;;;;;;;;5112998;28;20024;-68
2022/05/12 07:54:45;;;;;;;6.03;1.67;;;;;;;;;;5105107;28;20092;-68
2022/05/12 07:57:11;;;;;;;7.82;1.60;;;;;;;;;;5113271;28;20443;-68
2022/05/12 07:59:50;;;;;;;6.70;1.92;;;;;;;;;;5113589;28;20023;-68
2022/05/12 08:02:16;;;;;;;5.95;1.70;;;;;;;;;;5113235;28;20034;-68
2022/05/12 08:04:42;;;;;;;11.00;2.00;;;;;;;;;;5112861;28;20030;-68
2022/05/12 08:07:20;;;;;;;6.93;1.77;;;;;;;;;;5100780;28;20091;-68
2022/05/12 08:09:45;;;;;;;7.88;2.17;;;;;;;;;;5109970;28;20039;-68
2022/05/12 08:12:11;;;;;;;5.18;1.67;;;;;;;;;;5112734;28;20081;-68
2022/05/12 08:14:50;;;;;;;4.95;1.70;;;;;;;;;;5113032;28;20059;-68
2022/05/12 08:17:15;;;;;;;7.15;2.30;;;;;;;;;;5112892;28;20494;-69
2022/05/12 08:19:40;;;;;;;8.68;2.10;;;;;;;;;;5112523;28;20016;-68
2022/05/12 08:22:19;;;;;;;6.60;1.60;;;;;;;;;;5112512;28;20443;-68
2022/05/12 08:24:44;;;;;;;6.38;1.88;;;;;;;;;;5111607;28;20051;-68
2022/05/12 08:27:09;;;;;;;4.72;1.63;;;;;;;;;;5112398;28;20023;-68
2022/05/12 08:29:48;;;;;;;6.13;1.83;;;;;;;;;;5112747;28;20015;-68
2022/05/12 08:32:13;;;;;;;5.00;1.70;;;;;;;;;;5107331;28;20038;-68
2022/05/12 08:34:38;;;;;;;7.90;1.77;;;;;;;;;;5112761;28;20028;-69
2022/05/12 08:37:18;;;;;;;5.03;1.60;;;;;;;;;;5112585;28;20099;-69
2022/05/12 08:39:45;;;;;;;4.40;1.55;;;;;;;;;;5112945;28;20037;-68
2022/05/12 08:42:10;;;;;;;9.73;1.88;;;;;;;;;;5112813;28;20037;-69
2022/05/12 08:44:49;;;;;;;5.27;1.77;;;;;;;;;;5112801;28;20571;-68
2022/05/12 08:47:15;;;;;;;6.88;1.70;;;;;;;;;;5101400;28;20260;-68
2022/05/12 08:49:44;;;;;;;4.05;1.30;;;;;;;;;;5100148;28;20026;-69
2022/05/12 08:52:34;;;;;;;5.00;1.38;;;;;;;;;;5106355;28;20446;-69
2022/05/12 08:55:10;;;;;;;6.43;1.60;;;;;;;;;;5093546;28;20054;-68
2022/05/12 08:57:56;;;;;;;6.43;1.50;;;;;;;;;;5096113;28;20021;-68
2022/05/12 09:00:21;;;;;;;4.47;1.23;;;;;;;;;;5103720;28;20028;-68
2022/05/12 09:03:13;;;;;;;7.10;1.30;;;;;;;;;;5096750;28;20050;-68
2022/05/12 09:05:50;;;;;;;6.13;1.52;;;;;;;;;;5110207;28;20028;-68
2022/05/12 09:08:47;;;;;;;5.82;1.33;;;;;;;;;;5091547;28;20036;-67
2022/05/12 09:11:20;;;;;;;8.43;1.73;;;;;;;;;;5088244;28;20052;-69
2022/05/12 09:13:45;;;;;;;;;;;;;;;;;;5097400;28;20031;-67
2022/05/12 09:16:31;;;;;;;5.63;1.30;;;;;;;;;;5098799;28;19908;-70
2022/05/12 09:18:57;;;;;;;6.68;1.30;;;;;;;;;;5093567;28;21489;-70
2022/05/12 09:21:38;;;;;;;6.95;1.33;;;;;;;;;;5099142;28;20047;-69
2022/05/12 09:24:04;;;;;;;12.32;1.50;;;;;;;;;;5090627;28;20047;-68
2022/05/12 09:26:29;;;;;;;5.38;1.60;;;;;;;;;;5101792;28;20047;-69
2022/05/12 09:29:14;;;;;;;5.72;1.38;;;;;;;;;;5108162;28;20047;-69
2022/05/12 09:31:40;;;;;;;3.78;1.27;;;;;;;;;;5101619;28;20035;-69
2022/05/12 09:34:30;;;;;;;7.97;1.70;;;;;;;;;;5099948;28;20036;-69
2022/05/12 09:36:56;;;;;;;3.33;1.25;;;;;;;;;;5112871;28;20028;-69
2022/05/12 09:39:43;;;;;;;8.52;2.40;;;;;;;;;;5112506;28;20037;-69
2022/05/12 09:42:15;;;;;;;7.25;1.58;;;;;;;;;;5112519;28;20028;-70
2022/05/12 09:45:03;;;;;;;9.00;1.38;;;;;;;;;;5112360;28;20047;-69
2022/05/12 09:47:29;;;;;;;6.65;1.35;;;;;;;;;;5097406;28;20040;-69
2022/05/12 09:50:21;;;;;;;5.25;1.30;;;;;;;;;;5111880;28;20040;-69
2022/05/12 09:52:58;;;;;;;9.82;1.73;;;;;;;;;;5103780;28;20573;-69
2022/05/12 09:55:39;;;;;;;6.50;1.58;;;;;;;;;;5105051;28;20476;-69
2022/05/12 09:58:06;;;;;;;7.57;1.25;;;;;;;;;;5098174;28;20055;-69
2022/05/12 10:00:51;;;;;;;6.93;1.33;;;;;;;;;;5111955;28;20023;-69
2022/05/12 10:09:01;;;;;;;4.47;2.40;;;;;;;;;;5109541;28;20100;-67
2022/05/12 10:12:00;;;;;;;5.93;1.30;;;;;;;;;;5099640;28;20447;-67
2022/05/12 10:14:25;;;;;;;4.38;1.08;;;;;;;;;;5098053;28;20383;-67
2022/05/12 10:16:59;;;;;;;6.10;1.38;;;;;;;;;;5108416;28;20045;-67
2022/05/12 10:19:31;;;;;;;6.78;1.42;;;;;;;;;;5100346;28;20044;-67
2022/05/12 10:21:59;;;;;;;7.17;1.73;;;;;;;;;;5111349;28;20446;-67
2022/05/12 10:24:57;;;;;;;4.68;1.30;;;;;;;;;;5110255;28;20016;-67
2022/05/12 10:27:31;;;;;;;4.22;1.40;;;;;;;;;;5111576;28;20028;-67
2022/05/12 10:30:25;;;;;;;9.52;1.30;;;;;;;;;;5111366;28;20050;-67
2022/05/12 10:32:50;;;;;;;;;;;;;;;;;;5106231;28;20051;-67
2022/05/12 10:35:35;;;;;;;3.55;1.40;;;;;;;;;;5112235;28;20428;-67
2022/05/12 10:38:06;;;;;;;4.63;1.35;;;;;;;;;;5102078;28;20862;-70
2022/05/12 10:40:55;;;;;;;5.65;1.10;;;;;;;;;;5111490;28;20100;-69
2022/05/12 10:43:32;;;;;;;6.55;1.50;;;;;;;;;;5110459;28;20031;-69
2022/05/12 10:46:23;;;;;;;5.82;1.10;;;;;;;;;;5111356;28;20035;-69
2022/05/12 10:48:56;;;;;;;12.38;2.00;;;;;;;;;;5111594;28;20036;-69
2022/05/12 10:51:43;;;;;;;6.43;1.27;;;;;;;;;;5106095;28;20475;-69
2022/05/12 10:54:11;;;;;;;5.97;1.42;;;;;;;;;;5108901;28;20091;-69
2022/05/12 10:57:05;;;;;;;5.88;1.42;;;;;;;;;;5110985;28;20031;-68
2022/05/12 10:59:52;;;;;;;5.80;1.20;;;;;;;;;;5104040;28;20386;-69
2022/05/12 11:02:44;;;;;;;4.97;1.40;;;;;;;;;;5111113;28;20039;-69
2022/05/12 11:05:12;;;;;;;7.40;1.73;;;;;;;;;;5093236;28;20147;-69
2022/05/12 11:07:54;;;;;;;5.15;1.05;;;;;;;;;;5108799;28;20030;-69
2022/05/12 11:10:25;;;;;;;17.30;1.40;;;;;;;;;;5108489;28;20092;-69
2022/05/12 11:13:22;;;;;;;4.88;1.13;;;;;;;;;;5110764;28;20024;-69
2022/05/12 11:16:08;;;;;;;5.75;1.38;;;;;;;;;;5103742;28;20455;-69
2022/05/12 11:18:47;;;;;;;5.93;1.30;;;;;;;;;;5098206;28;20047;-68
2022/05/12 11:21:12;;;;;;;8.32;1.38;;;;;;;;;;5109009;28;20035;-69
2022/05/12 11:23:43;;;;;;;7.28;1.20;;;;;;;;;;5104242;28;20028;-68
2022/05/12 11:26:33;;;;;;;9.00;1.45;;;;;;;;;;5105129;28;20054;-69
2022/05/12 11:32:30;;;;;;;7.05;1.30;;;;;;;;;;5108968;28;20100;-69
2022/05/12 11:34:58;;;;;;;9.60;1.50;;;;;;;;;;5107596;28;20039;-69
2022/05/12 11:37:39;;;;;;;6.20;1.50;;;;;;;;;;5097274;28;20490;-69
2022/05/12 11:40:11;;;;;;;7.05;1.60;;;;;;;;;;5095757;28;20051;-69
2022/05/12 11:46:11;;;;;;;7.07;1.25;;;;;;;;;;5100861;28;20035;-69
2022/05/12 11:49:12;;;;;;;7.75;1.88;;;;;;;;;;5106424;28;20027;-69
2022/05/12 11:51:45;;;;;;;10.23;1.75;;;;;;;;;;5069301;28;20394;-69
2022/05/12 11:54:28;;;;;;;6.25;1.88;;;;;;;;;;5097741;28;20528;-69
2022/05/12 11:56:55;;;;;;;8.27;1.58;;;;;;;;;;5110032;28;20038;-69
2022/05/12 11:59:26;;;;;;;5.30;1.20;;;;;;;;;;5106754;28;20020;-69
2022/05/12 12:02:18;;;;;;;8.77;1.77;;;;;;;;;;5102301;28;20031;-69
2022/05/12 12:04:51;;;;;;;6.07;1.67;;;;;;;;;;5083098;28;20548;-69
2022/05/12 12:07:44;;;;;;;6.78;1.67;;;;;;;;;;5107988;28;20036;-68
2022/05/12 12:10:24;;;;;;;7.05;1.40;;;;;;;;;;5100948;28;20483;-69
2022/05/12 12:12:58;;;;;;;7.35;1.70;;;;;;;;;;5108033;28;20027;-69
2022/05/12 12:15:32;;;;;;;4.50;1.55;;;;;;;;;;5104592;28;20092;-69
2022/05/12 12:18:05;;;;;;;4.63;1.42;;;;;;;;;;5096792;28;20062;-69
2022/05/12 12:20:40;;;;;;;5.50;1.50;;;;;;;;;;5097946;28;20034;-69
2022/05/12 12:23:30;;;;;;;8.48;1.80;;;;;;;;;;5100431;28;20031;-69
2022/05/12 12:26:02;;;;;;;8.45;2.30;;;;;;;;;;5096681;28;20056;-70
2022/05/12 12:28:50;;;;;;;12.35;2.22;;;;;;;;;;5098466;28;20062;-69
2022/05/12 12:31:31;;;;;;;7.75;1.83;;;;;;;;;;5088051;28;20039;-69
2022/05/12 12:34:19;;;;;;;7.28;1.55;;;;;;;;;;5099117;28;20016;-69
2022/05/12 12:37:05;;;;;;;4.70;1.45;;;;;;;;;;5109604;28;20023;-69
2022/05/12 12:39:50;;;;;;;8.23;1.90;;;;;;;;;;5109422;28;20027;-68
2022/05/12 12:42:31;;;;;;;5.20;1.50;;;;;;;;;;5109218;28;20035;-69
2022/05/12 12:45:09;;;;;;;6.97;1.70;;;;;;;;;;5091648;28;20031;-70
2022/05/12 12:47:59;;;;;;;12.02;2.22;;;;;;;;;;5097966;28;20032;-68
2022/05/12 12:50:46;;;;;;;6.10;1.50;;;;;;;;;;5095379;28;20114;-68
2022/05/12 12:56:36;;;;;;;9.82;1.55;;;;;;;;;;5104445;28;20093;-69
2022/05/12 12:59:14;;;;;;;9.07;1.70;;;;;;;;;;5108042;28;20028;-68
2022/05/12 13:01:45;;;;;;;4.05;1.52;;;;;;;;;;5097995;28;20032;-69
2022/05/12 13:04:25;;;;;;;6.45;1.80;;;;;;;;;;5104207;28;20055;-69
2022/05/12 13:06:58;;;;;;;11.52;1.92;;;;;;;;;;5097547;28;20469;-69
2022/05/12 13:09:32;;;;;;;6.07;1.80;;;;;;;;;;5107982;28;20073;-69
2022/05/12 13:11:57;;;;;;;;;;;;;;;;;;5113232;28;20503;-68
2022/05/12 13:14:30;;;;;;;6.50;1.80;;;;;;;;;;5087530;28;20391;-68
2022/05/12 13:16:56;;;;;;;;;;;;;;;;;;5098510;28;20032;-69
2022/05/12 13:19:28;;;;;;;7.03;2.10;;;;;;;;;;5112683;28;19949;-69
2022/05/12 13:22:01;;;;;;;6.68;1.70;;;;;;;;;;5112283;28;20028;-68
2022/05/12 13:24:27;;;;;;;6.20;2.00;;;;;;;;;;5102892;28;20378;-69
2022/05/12 13:27:00;;;;;;;10.75;2.20;;;;;;;;;;5111343;28;20048;-68
2022/05/12 13:29:36;;;;;;;8.20;1.50;;;;;;;;;;5087783;28;20462;-68
2022/05/12 13:32:11;;;;;;;6.50;1.42;;;;;;;;;;5091208;28;20752;-68
2022/05/12 13:34:43;;;;;;;9.40;1.48;;;;;;;;;;5106367;28;20120;-68
2022/05/12 13:37:17;;;;;;;6.90;1.63;;;;;;;;;;5095665;28;20038;-68
2022/05/12 13:39:47;;;;;;;;;;;;;;;;;;5112979;28;20097;-68
2022/05/12 13:42:22;;;;;;;6.53;1.20;;;;;;;;;;5109622;28;19903;-68
2022/05/12 13:44:56;;;;;;;6.40;1.40;;;;;;;;;;5111850;28;20023;-68
2022/05/12 13:47:21;;;;;;;;;;;;;;;;;;5112618;28;20028;-68
2022/05/12 13:49:55;;;;;;;6.38;1.60;;;;;;;;;;5098949;28;19920;-68
2022/05/12 13:52:22;;;;;;;;;;;;;;;;;;5110612;28;20032;-68
2022/05/12 13:54:53;;;;;;;6.50;1.27;;;;;;;;;;5112376;28;20050;-68
2022/05/12 13:57:35;;;;;;;6.50;1.38;;;;;;;;;;5101790;28;20138;-68
2022/05/12 14:00:10;;;;;;;4.25;1.17;;;;;;;;;;5111808;28;20371;-69
2022/05/12 14:03:02;;;;;;;3.05;1.02;;;;;;;;;;5112123;28;20096;-68
2022/05/12 14:05:34;;;;;;;3.22;1.00;;;;;;;;;;5100819;28;20074;-68
2022/05/12 14:08:02;;;;;;;4.85;0.90;;;;;;;;;;5107167;28;20036;-69
2022/05/12 14:10:35;;;;;;;3.30;1.15;;;;;;;;;;5111903;28;20060;-68
2022/05/12 14:19:15;;;;;;;5.68;1.38;;;;;;;;;;5111731;28;20449;-68
2022/05/12 14:21:50;;;;;;;7.82;1.55;;;;;;;;;;5112254;28;20027;-68
2022/05/12 14:24:24;;;;;;;6.30;1.55;;;;;;;;;;5100784;28;20110;-68
2022/05/12 14:26:49;;;;;;;8.85;1.88;;;;;;;;;;5090838;28;20060;-68
2022/05/12 14:29:21;;;;;;;4.18;1.10;;;;;;;;;;5106371;28;20080;-68
2022/05/12 14:31:54;;;;;;;5.65;2.05;;;;;;;;;;5111212;28;20026;-68
2022/05/12 14:34:20;;;;;;;5.70;1.27;;;;;;;;;;5111404;28;20047;-68
2022/05/12 14:37:00;;;;;;;5.90;1.70;;;;;;;;;;5111383;28;20032;-68
2022/05/12 14:39:33;;;;;;;6.40;1.77;;;;;;;;;;5098977;28;20032;-68
2022/05/12 14:42:05;;;;;;;5.43;1.48;;;;;;;;;;5109636;28;20039;-68
2022/05/12 14:44:30;;;;;;;5.53;1.33;;;;;;;;;;5111080;28;20034;-68
2022/05/12 14:47:04;;;;;;;4.50;1.20;;;;;;;;;;5110709;28;20447;-68
2022/05/12 14:49:40;;;;;;;7.70;1.40;;;;;;;;;;5110031;28;20039;-68
2022/05/12 14:52:14;;;;;;;5.35;1.05;;;;;;;;;;5111137;28;20118;-68
2022/05/12 14:54:41;;;;;;;4.30;1.40;;;;;;;;;;5108271;28;20118;-68
2022/05/12 14:57:13;;;;;;;6.63;1.55;;;;;;;;;;5098817;28;20044;-68
2022/05/12 14:59:45;;;;;;;5.68;1.40;;;;;;;;;;5109100;28;20063;-68
2022/05/12 15:02:20;;;;;;;3.85;1.10;;;;;;;;;;5109370;28;20031;-68
2022/05/12 15:04:52;;;;;;;8.73;1.63;;;;;;;;;;5104667;28;20093;-68
2022/05/12 15:07:18;;;;;;;6.45;2.00;;;;;;;;;;5091419;28;20035;-68
2022/05/12 15:09:50;;;;;;;4.82;1.50;;;;;;;;;;5111333;28;20470;-68
2022/05/12 15:12:22;;;;;;;3.25;1.30;;;;;;;;;;5107642;28;20031;-68
2022/05/12 15:14:48;;;;;;;5.60;1.30;;;;;;;;;;5110729;28;20063;-68
2022/05/12 15:17:26;;;;;;;9.95;1.35;;;;;;;;;;5110663;28;20071;-68
2022/05/12 15:19:59;;;;;;;6.00;1.40;;;;;;;;;;5109940;28;20080;-68
2022/05/12 15:22:24;;;;;;;3.08;1.02;;;;;;;;;;5110186;28;20107;-68
2022/05/12 15:24:57;;;;;;;7.55;1.38;;;;;;;;;;5110353;28;20440;-68
2022/05/12 15:27:31;;;;;;;3.38;1.17;;;;;;;;;;5099012;28;20036;-68
2022/05/12 15:29:56;;;;;;;;;;;;;;;;;;5109534;28;20122;-68
2022/05/12 15:32:28;;;;;;;4.70;1.17;;;;;;;;;;5104390;28;20007;-68
2022/05/12 15:35:00;;;;;;;8.63;1.75;;;;;;;;;;5108882;28;20092;-68
2022/05/12 15:37:26;;;;;;;4.00;1.20;;;;;;;;;;5111157;28;20031;-68
2022/05/12 15:39:58;;;;;;;3.67;1.33;;;;;;;;;;5100824;28;20041;-68
2022/05/12 15:42:30;;;;;;;5.93;1.08;;;;;;;;;;5100225;28;20030;-68
2022/05/12 15:44:55;;;;;;;9.82;1.45;;;;;;;;;;5098490;28;20475;-68
2022/05/12 15:47:30;;;;;;;7.65;1.77;;;;;;;;;;5101864;28;20064;-68